Time;durP1;ratioP1;P1;durP2;ratioP2;P2;SDS_P1;SDS_P2;PMS_P1;PMS_P2;Temp;Humidity;BMP_temperature;BMP_pressure;BME280_temperature;BME280_humidity;BME280_pressure;Samples;Min_cycle;Max_cycle;Signal;HPM_P1;HPM_P2
2021/08/20 00:01:37;;;;;;;12.37;5.40;;;;;;;12.44;96.64;99186.21;1764440;81;20976;-70
2021/08/20 00:04:06;;;;;;;10.13;6.12;;;;;;;12.40;96.60;99189.41;1778557;79;21141;-70
2021/08/20 00:06:34;;;;;;;12.50;5.60;;;;;;;12.32;96.56;99184.20;1790141;79;21542;-71
2021/08/20 00:09:02;;;;;;;15.13;6.42;;;;;;;12.23;96.62;99187.02;1779283;80;20988;-71
2021/08/20 00:11:30;;;;;;;12.50;6.00;;;;;;;12.15;96.68;99185.70;1797458;79;20939;-70
2021/08/20 00:13:59;;;;;;;8.98;5.55;;;;;;;12.08;97.19;99186.27;1797557;79;20876;-71
2021/08/20 00:16:27;;;;;;;9.98;5.28;;;;;;;12.07;97.29;99187.97;1797570;79;20958;-70
2021/08/20 00:18:53;;;;;;;11.15;6.37;;;;;;;12.05;97.53;99184.75;1848743;77;20920;-70
2021/08/20 00:21:22;;;;;;;11.40;5.70;;;;;;;12.03;97.63;99191.16;1848240;77;21002;-71
2021/08/20 00:23:49;;;;;;;12.88;6.30;;;;;;;12.02;97.78;99184.84;1848355;77;21456;-70
2021/08/20 00:26:17;;;;;;;10.53;5.35;;;;;;;12.04;98.01;99184.52;1848425;77;21392;-71
2021/08/20 00:28:45;;;;;;;10.43;5.70;;;;;;;12.06;98.05;99184.98;1848256;77;21455;-73
2021/08/20 00:31:13;;;;;;;12.07;5.80;;;;;;;12.07;98.12;99188.78;1848579;77;20994;-75
2021/08/20 00:33:40;;;;;;;11.57;6.42;;;;;;;12.09;98.26;99186.50;1848470;77;21485;-73
2021/08/20 00:36:09;;;;;;;12.80;6.03;;;;;;;12.12;98.33;99185.83;1779206;80;20849;-73
2021/08/20 00:38:38;;;;;;;9.48;5.85;;;;;;;12.17;98.45;99179.30;1797514;79;20880;-72
2021/08/20 00:41:12;;;;;;;8.28;5.75;;;;;;;12.21;98.41;99174.16;1797735;79;22144;-74
2021/08/20 00:43:40;;;;;;;14.47;6.47;;;;;;;12.24;98.21;99179.00;1848363;77;21376;-71
2021/08/20 00:46:07;;;;;;;13.00;5.90;;;;;;;12.26;98.02;99181.41;1848600;77;20895;-70
2021/08/20 00:48:33;;;;;;;12.23;5.97;;;;;;;12.24;97.87;99186.45;1822284;77;20951;-72
2021/08/20 00:51:23;;;;;;;16.57;5.75;;;;;;;12.22;97.71;99188.73;1851622;77;21400;-71
2021/08/20 00:53:51;;;;;;;14.80;5.67;;;;;;;12.20;97.81;99182.75;1784958;80;21502;-71
2021/08/20 00:56:19;;;;;;;9.55;5.70;;;;;;;12.19;97.92;99194.90;1806236;79;20983;-73
2021/08/20 00:58:48;;;;;;;10.63;5.65;;;;;;;12.15;97.75;99198.89;1806290;79;20887;-73
2021/08/20 01:01:15;;;;;;;12.95;6.08;;;;;;;12.10;97.66;99196.37;1760400;80;21494;-73
2021/08/20 01:03:44;;;;;;;12.93;7.00;;;;;;;12.04;97.68;99192.20;1789897;80;21564;-74
2021/08/20 01:06:11;;;;;;;11.25;5.28;;;;;;;12.02;97.89;99201.92;1762322;81;21129;-72
2021/08/20 01:08:39;;;;;;;11.50;5.30;;;;;;;11.98;98.08;99203.73;1762395;81;20950;-73
2021/08/20 01:11:10;;;;;;;11.10;5.50;;;;;;;11.93;98.08;99202.55;1762250;81;21431;-74
2021/08/20 01:13:41;;;;;;;10.00;6.17;;;;;;;11.89;98.37;99199.08;1789111;80;20895;-73
2021/08/20 01:16:08;;;;;;;11.65;6.03;;;;;;;11.85;98.51;99202.27;1789951;80;20926;-72
2021/08/20 01:18:38;;;;;;;10.05;5.60;;;;;;;11.83;98.72;99205.10;1790169;80;21474;-71
2021/08/20 01:21:19;;;;;;;19.37;6.10;;;;;;;11.80;98.72;99198.89;1790209;80;20883;-73
2021/08/20 01:23:55;;;;;;;10.48;5.15;;;;;;;11.75;98.74;99201.23;1761938;80;21434;-74
2021/08/20 01:26:24;;;;;;;11.45;5.92;;;;;;;11.72;99.08;99206.59;1789938;80;20979;-74
2021/08/20 01:28:50;;;;;;;11.53;6.37;;;;;;;11.73;99.52;99207.63;1790189;80;20919;-75
2021/08/20 01:31:18;;;;;;;8.38;5.70;;;;;;;11.74;99.51;99204.31;1789805;80;20975;-73
2021/08/20 01:33:46;;;;;;;8.95;6.03;;;;;;;11.72;99.54;99206.59;1790247;80;20931;-73
2021/08/20 01:36:14;;;;;;;9.15;5.97;;;;;;;11.71;99.72;99203.59;1789973;80;20943;-73
2021/08/20 01:38:55;;;;;;;13.58;6.37;;;;;;;11.73;100.00;99206.83;1789885;80;21403;-73
2021/08/20 01:41:25;;;;;;;;;;;;;;;11.73;100.00;99206.26;1792520;80;20963;-73
2021/08/20 01:43:54;;;;;;;8.18;5.47;;;;;;;11.73;100.00;99204.88;1790009;80;21939;-73
2021/08/20 01:46:22;;;;;;;8.05;5.85;;;;;;;11.73;100.00;99202.70;1789786;80;20970;-73
2021/08/20 01:48:51;;;;;;;11.83;6.37;;;;;;;11.74;100.00;99205.12;1785114;80;20872;-72
2021/08/20 01:51:18;;;;;;;18.30;6.50;;;;;;;11.76;100.00;99207.54;1784105;80;20923;-72
2021/08/20 01:53:46;;;;;;;15.93;6.42;;;;;;;11.75;100.00;99211.42;1784178;80;20896;-71
2021/08/20 01:56:25;;;;;;;16.42;6.90;;;;;;;11.75;100.00;99212.23;1784110;80;20916;-72
2021/08/20 01:58:55;;;;;;;12.90;6.47;;;;;;;11.76;100.00;99219.34;1784096;80;20869;-73
2021/08/20 02:01:24;;;;;;;11.22;6.62;;;;;;;11.78;100.00;99221.80;1781492;79;21534;-74
2021/08/20 02:03:51;;;;;;;9.55;5.85;;;;;;;11.78;100.00;99225.35;1781762;80;20929;-72
2021/08/20 02:06:19;;;;;;;21.07;7.33;;;;;;;11.76;100.00;99216.59;1781585;80;20872;-72
2021/08/20 02:08:48;;;;;;;10.15;5.90;;;;;;;11.77;100.00;99223.73;1751281;80;20979;-72
2021/08/20 02:11:14;;;;;;;8.85;5.87;;;;;;;11.76;100.00;99226.22;1781469;80;20966;-72
2021/08/20 02:13:44;;;;;;;9.88;6.45;;;;;;;11.71;100.00;99218.72;1781281;80;20936;-72
2021/08/20 02:16:13;;;;;;;9.20;6.05;;;;;;;11.66;100.00;99224.41;1781583;80;20865;-74
2021/08/20 02:18:41;;;;;;;12.90;6.15;;;;;;;11.61;100.00;99230.09;1781581;80;20888;-73
2021/08/20 02:21:10;;;;;;;12.63;5.97;;;;;;;11.58;100.00;99231.55;1781438;80;21155;-73
2021/08/20 02:23:39;;;;;;;14.13;6.08;;;;;;;11.55;100.00;99233.62;1781479;80;20919;-73
2021/08/20 02:26:09;;;;;;;12.00;5.58;;;;;;;11.54;100.00;99234.75;1781433;80;20919;-74
2021/08/20 02:28:35;;;;;;;8.88;5.25;;;;;;;11.51;100.00;99236.79;1781909;80;20988;-74
2021/08/20 02:31:02;;;;;;;14.63;6.87;;;;;;;11.49;100.00;99236.31;1781583;80;21542;-74
2021/08/20 02:33:33;;;;;;;14.00;6.37;;;;;;;11.46;100.00;99240.52;1781598;80;20927;-75
2021/08/20 02:36:06;;;;;;;11.78;7.35;;;;;;;11.49;100.00;99236.31;1781454;80;20880;-73
2021/08/20 02:38:29;;;;;;;12.65;6.42;;;;;;;11.50;100.00;99234.61;1779748;80;20888;-71
2021/08/20 02:40:57;;;;;;;12.55;6.80;;;;;;;11.52;100.00;99237.03;1781585;80;20918;-73
2021/08/20 02:43:23;;;;;;;13.70;7.75;;;;;;;11.55;100.00;99239.12;1781420;80;20986;-73
2021/08/20 02:45:50;;;;;;;9.60;6.12;;;;;;;11.61;100.00;99246.59;1781802;80;21706;-72
2021/08/20 02:48:18;;;;;;;13.35;6.60;;;;;;;11.65;100.00;99244.79;1781294;80;20880;-73
2021/08/20 02:50:46;;;;;;;12.00;7.50;;;;;;;11.69;100.00;99247.12;1781620;80;20849;-73
2021/08/20 02:53:16;;;;;;;11.83;7.78;;;;;;;11.70;100.00;99250.91;1781424;80;20967;-72
2021/08/20 02:55:43;;;;;;;12.33;7.65;;;;;;;11.75;100.00;99245.80;1781567;80;20900;-74
2021/08/20 02:58:10;;;;;;;13.72;7.20;;;;;;;11.79;100.00;99242.09;1781501;80;21925;-73
2021/08/20 03:00:38;;;;;;;13.98;7.30;;;;;;;11.84;100.00;99244.66;1780457;80;20907;-72
2021/08/20 03:03:05;;;;;;;14.60;7.67;;;;;;;11.87;100.00;99246.74;1784077;80;20951;-72
2021/08/20 03:05:32;;;;;;;15.60;7.22;;;;;;;11.90;100.00;99246.65;1784006;80;21510;-71
2021/08/20 03:08:01;;;;;;;12.45;6.92;;;;;;;11.91;100.00;99242.76;1784103;80;20872;-70
2021/08/20 03:10:31;;;;;;;9.73;6.72;;;;;;;11.92;100.00;99250.44;1806462;78;21415;-71
2021/08/20 03:12:57;;;;;;;14.83;7.42;;;;;;;11.94;100.00;99247.59;1802819;78;21422;-72
2021/08/20 03:15:27;;;;;;;12.37;7.78;;;;;;;11.98;100.00;99253.25;1820116;78;21534;-70
2021/08/20 03:17:55;;;;;;;10.45;7.05;;;;;;;12.01;100.00;99249.83;1820199;78;21478;-68
2021/08/20 03:20:24;;;;;;;18.50;8.13;;;;;;;12.03;100.00;99251.11;1820071;78;20919;-69
2021/08/20 03:22:52;;;;;;;10.95;6.67;;;;;;;12.05;100.00;99256.28;1819937;78;21146;-69
2021/08/20 03:25:21;;;;;;;12.50;7.35;;;;;;;12.06;100.00;99253.77;1819988;78;20872;-69
2021/08/20 03:27:49;;;;;;;12.15;6.40;;;;;;;12.07;100.00;99251.25;1820260;78;20876;-69
2021/08/20 03:30:27;;;;;;;11.97;7.25;;;;;;;12.07;100.00;99255.38;1819783;78;20930;-70
2021/08/20 03:32:56;;;;;;;14.15;8.00;;;;;;;12.08;100.00;99262.50;1819145;78;20920;-69
2021/08/20 03:35:25;;;;;;;13.38;6.97;;;;;;;12.11;100.00;99263.20;1819836;78;21112;-70
2021/08/20 03:37:58;;;;;;;11.12;6.85;;;;;;;12.15;100.00;99263.55;1820123;78;20907;-70
2021/08/20 03:40:27;;;;;;;9.78;6.58;;;;;;;12.20;100.00;99265.31;1820162;78;20970;-70
2021/08/20 03:42:58;;;;;;;11.80;7.55;;;;;;;12.24;100.00;99260.75;1820290;78;20895;-71
2021/08/20 03:45:28;;;;;;;11.97;7.15;;;;;;;12.30;100.00;99264.92;1819787;78;21104;-72
2021/08/20 03:47:55;;;;;;;16.12;7.25;;;;;;;12.34;100.00;99260.94;1820893;78;21604;-71
2021/08/20 03:50:21;;;;;;;13.58;6.83;;;;;;;12.39;100.00;99268.42;1823653;78;20963;-73
2021/08/20 03:52:49;;;;;;;11.38;7.30;;;;;;;12.44;100.00;99265.48;1823808;78;20959;-73
2021/08/20 03:55:16;;;;;;;12.90;7.92;;;;;;;12.49;100.00;99273.54;1823752;78;20844;-74
2021/08/20 03:57:49;;;;;;;10.55;7.10;;;;;;;12.59;100.00;99275.66;1819971;78;20859;-73
2021/08/20 04:00:16;;;;;;;12.07;7.12;;;;;;;12.66;100.00;99281.44;1823751;78;21529;-75
2021/08/20 04:02:46;;;;;;;14.65;8.00;;;;;;;12.69;100.00;99278.82;1823807;78;20950;-75
2021/08/20 04:05:13;;;;;;;11.83;7.12;;;;;;;12.74;100.00;99283.30;1822728;78;20954;-75
2021/08/20 04:07:47;;;;;;;9.85;7.05;;;;;;;12.77;100.00;99289.50;1812537;78;20918;-72
2021/08/20 04:10:19;;;;;;;14.28;6.90;;;;;;;12.78;100.00;99280.09;1819854;78;20914;-73
2021/08/20 04:13:03;;;;;;;13.98;7.40;;;;;;;12.80;100.00;99286.08;1813575;78;21068;-72
2021/08/20 04:15:39;;;;;;;10.30;6.45;;;;;;;12.81;100.00;99289.88;1784959;80;20966;-72
2021/08/20 04:18:06;;;;;;;12.05;7.05;;;;;;;12.85;100.00;99290.01;1789589;80;21478;-73
2021/08/20 04:20:34;;;;;;;9.35;7.50;;;;;;;12.90;100.00;99281.54;1791521;80;20896;-71
2021/08/20 04:23:05;;;;;;;15.32;7.87;;;;;;;12.97;100.00;99285.13;1791428;80;20971;-71
2021/08/20 04:25:32;;;;;;;12.25;7.33;;;;;;;13.03;100.00;99276.89;1791317;80;22160;-72
2021/08/20 04:28:17;;;;;;;13.83;7.42;;;;;;;13.12;100.00;99278.99;1782506;80;20884;-71
2021/08/20 04:30:47;;;;;;;12.68;7.62;;;;;;;13.23;100.00;99277.45;1798577;79;20903;-72
2021/08/20 04:33:16;;;;;;;14.15;7.22;;;;;;;13.33;100.00;99278.38;1752454;79;21433;-72
2021/08/20 04:36:02;;;;;;;13.00;7.58;;;;;;;13.44;100.00;99285.08;1821461;78;20876;-71
2021/08/20 04:38:33;;;;;;;9.73;6.35;;;;;;;13.55;100.00;99286.25;1817717;78;21935;-73
2021/08/20 04:41:17;;;;;;;16.90;8.18;;;;;;;13.65;100.00;99285.58;1821591;78;21454;-73
2021/08/20 04:43:51;;;;;;;11.10;7.45;;;;;;;13.76;100.00;99291.70;1819229;78;20868;-76
2021/08/20 04:46:32;;;;;;;12.40;7.65;;;;;;;13.91;100.00;99288.81;1806372;78;21075;-73
2021/08/20 04:49:17;;;;;;;13.18;7.55;;;;;;;14.00;99.13;99293.64;1804434;78;21070;-74
2021/08/20 04:52:05;;;;;;;14.83;8.20;;;;;;;14.10;98.51;99292.38;1799859;78;21187;-74
2021/08/20 04:54:33;;;;;;;14.50;7.62;;;;;;;14.18;97.71;99285.37;1803351;78;21522;-75
2021/08/20 04:57:04;;;;;;;14.03;7.05;;;;;;;14.27;97.69;99292.15;1812647;78;20941;-75
2021/08/20 04:59:30;;;;;;;10.48;6.47;;;;;;;14.37;97.37;99293.06;1807845;78;20860;-72
2021/08/20 05:01:57;;;;;;;11.18;7.17;;;;;;;14.46;96.74;99288.22;1810898;78;20985;-72
2021/08/20 05:04:24;;;;;;;13.98;7.17;;;;;;;14.56;96.03;99286.94;1810887;78;21218;-74
2021/08/20 05:06:52;;;;;;;10.70;7.12;;;;;;;14.65;95.27;99286.81;1803085;78;20918;-73
2021/08/20 05:09:20;;;;;;;9.43;6.65;;;;;;;14.73;95.16;99290.02;1809066;78;20926;-73
2021/08/20 05:11:47;;;;;;;15.65;6.95;;;;;;;14.82;94.80;99290.69;1781556;78;21015;-73
2021/08/20 05:14:15;;;;;;;8.78;7.10;;;;;;;14.91;95.17;99283.63;1810163;78;20949;-73
2021/08/20 05:16:47;;;;;;;9.98;6.80;;;;;;;15.01;94.57;99285.33;1810831;78;20970;-73
2021/08/20 05:19:15;;;;;;;7.42;5.75;;;;;;;15.11;93.78;99286.17;1808136;78;21004;-74
2021/08/20 05:21:41;;;;;;;19.32;6.67;;;;;;;15.22;93.67;99290.63;1810626;78;20943;-74
2021/08/20 05:24:11;;;;;;;9.63;5.95;;;;;;;15.32;93.16;99290.70;1807582;78;20937;-73
2021/08/20 05:26:37;;;;;;;10.58;5.80;;;;;;;15.43;93.15;99291.80;1801091;78;20961;-73
2021/08/20 05:29:04;;;;;;;13.00;5.90;;;;;;;15.56;92.95;99288.38;1806415;78;21078;-75
2021/08/20 05:31:30;;;;;;;10.35;5.97;;;;;;;15.67;92.05;99280.59;1778884;80;21405;-74
2021/08/20 05:33:58;;;;;;;15.05;5.92;;;;;;;15.78;89.74;99275.33;1775278;80;21035;-74
2021/08/20 05:36:27;;;;;;;10.60;5.92;;;;;;;15.88;90.28;99274.80;1774507;79;21023;-75
2021/08/20 05:38:53;;;;;;;9.28;6.30;;;;;;;15.99;89.82;99277.83;1783622;79;21527;-74
2021/08/20 05:41:23;;;;;;;10.78;6.65;;;;;;;16.10;88.80;99272.78;1773296;80;21112;-74
2021/08/20 05:43:50;;;;;;;12.58;6.25;;;;;;;16.23;89.03;99283.72;1781994;80;20935;-75
2021/08/20 05:46:17;;;;;;;10.70;5.35;;;;;;;16.36;88.96;99279.09;1781840;80;21489;-74
2021/08/20 05:48:44;;;;;;;8.90;5.83;;;;;;;16.51;88.92;99281.03;1785678;80;20997;-73
2021/08/20 05:51:11;;;;;;;11.55;5.95;;;;;;;16.66;89.04;99281.38;1788590;80;21420;-73
2021/08/20 05:53:38;;;;;;;10.30;5.47;;;;;;;16.77;87.77;99283.78;1788504;80;21472;-73
2021/08/20 05:56:05;;;;;;;9.05;5.00;;;;;;;16.85;87.58;99278.60;1788544;80;20874;-73
2021/08/20 05:58:31;;;;;;;9.63;5.40;;;;;;;16.95;86.69;99282.19;1788587;80;20934;-73
2021/08/20 06:00:58;;;;;;;10.35;4.65;;;;;;;17.01;84.68;99271.61;1788557;80;20898;-72
2021/08/20 06:03:24;;;;;;;8.70;5.45;;;;;;;17.08;85.30;99283.65;1788582;80;20921;-72
2021/08/20 06:05:52;;;;;;;8.53;4.70;;;;;;;17.15;84.86;99278.25;1788472;80;21131;-73
2021/08/20 06:08:20;;;;;;;8.73;5.55;;;;;;;17.25;83.50;99278.23;1788397;80;20925;-73
2021/08/20 06:10:47;;;;;;;6.28;5.05;;;;;;;17.35;83.69;99280.39;1788748;80;20929;-72
2021/08/20 06:13:16;;;;;;;8.93;4.70;;;;;;;17.47;83.50;99287.16;1788165;80;20964;-72
2021/08/20 06:15:42;;;;;;;6.45;4.70;;;;;;;17.61;82.54;99287.21;1787096;80;21291;-72
2021/08/20 06:18:09;;;;;;;7.00;4.62;;;;;;;17.76;82.85;99292.69;1787463;80;21622;-73
2021/08/20 06:20:38;;;;;;;9.05;5.42;;;;;;;17.91;83.36;99288.77;1787704;80;20885;-71
2021/08/20 06:23:04;;;;;;;9.78;4.28;;;;;;;18.07;82.98;99289.41;1788853;80;20965;-75
2021/08/20 06:25:31;;;;;;;9.05;4.55;;;;;;;18.20;81.58;99281.09;1788583;80;20901;-70
2021/08/20 06:27:58;;;;;;;7.65;4.70;;;;;;;18.33;80.82;99286.66;1788888;80;20920;-73
2021/08/20 06:30:25;;;;;;;9.40;4.80;;;;;;;18.43;79.10;99286.02;1788623;80;21509;-73
2021/08/20 06:32:52;;;;;;;7.37;4.62;;;;;;;18.54;78.99;99283.96;1788738;80;20886;-71
2021/08/20 06:35:18;;;;;;;7.15;4.45;;;;;;;18.66;78.75;99288.73;1788466;80;20885;-72
2021/08/20 06:37:45;;;;;;;4.97;4.03;;;;;;;18.81;78.36;99282.79;1788472;80;20893;-71
2021/08/20 06:40:12;;;;;;;9.00;4.42;;;;;;;18.94;77.35;99279.19;1782773;80;21595;-75
2021/08/20 06:42:41;;;;;;;6.80;4.30;;;;;;;19.07;76.38;99279.92;1802381;79;21172;-73
2021/08/20 06:45:08;;;;;;;5.97;3.80;;;;;;;19.17;76.47;99281.82;1792961;79;21503;-73
2021/08/20 06:47:35;;;;;;;9.48;4.40;;;;;;;19.27;76.52;99279.17;1799642;79;20995;-73
2021/08/20 06:50:06;;;;;;;6.45;4.10;;;;;;;19.42;75.55;99282.32;1781618;79;21606;-74
2021/08/20 06:52:32;;;;;;;7.30;4.40;;;;;;;19.58;75.32;99277.95;1779807;80;21429;-75
2021/08/20 06:54:59;;;;;;;9.33;3.92;;;;;;;19.72;74.76;99282.23;1784644;80;22094;-76
2021/08/20 06:57:26;;;;;;;8.23;4.40;;;;;;;19.85;74.47;99281.36;1763258;80;20933;-72
2021/08/20 06:59:52;;;;;;;10.50;4.10;;;;;;;19.99;74.44;99279.30;1760915;81;20976;-72
2021/08/20 07:02:19;;;;;;;6.05;3.62;;;;;;;20.16;72.99;99275.06;1760776;80;20909;-79
2021/08/20 07:04:46;;;;;;;7.75;3.60;;;;;;;20.27;71.30;99281.48;1791336;80;21068;-70
2021/08/20 07:07:12;;;;;;;10.20;4.15;;;;;;;20.35;70.43;99276.97;1792186;80;21965;-71
2021/08/20 07:09:38;;;;;;;7.97;3.70;;;;;;;20.45;70.30;99275.47;1792457;80;21419;-73
2021/08/20 07:12:06;;;;;;;3.85;2.77;;;;;;;20.56;70.53;99279.14;1792232;80;21450;-72
2021/08/20 07:14:34;;;;;;;5.20;3.58;;;;;;;20.68;68.34;99280.20;1792027;80;20986;-72
2021/08/20 07:17:01;;;;;;;4.03;3.02;;;;;;;20.78;70.16;99282.05;1792185;80;20911;-71
2021/08/20 07:19:27;;;;;;;9.45;4.03;;;;;;;20.89;68.82;99282.88;1768993;80;21906;-66
2021/08/20 07:21:56;;;;;;;5.20;3.52;;;;;;;20.99;69.21;99280.14;1781873;80;20980;-69
2021/08/20 07:24:22;;;;;;;4.58;2.90;;;;;;;21.16;69.13;99279.21;1777937;80;20990;-70
2021/08/20 07:26:50;;;;;;;6.42;3.10;;;;;;;21.30;68.24;99283.48;1776233;80;21524;-69
2021/08/20 07:29:16;;;;;;;8.50;3.37;;;;;;;21.48;67.08;99294.08;1776268;80;21004;-70
2021/08/20 07:31:43;;;;;;;7.17;3.10;;;;;;;21.57;65.80;99292.31;1778586;80;21837;-69
2021/08/20 07:34:10;;;;;;;4.87;3.05;;;;;;;21.64;64.64;99294.52;1778605;80;21464;-70
2021/08/20 07:36:37;;;;;;;6.30;3.12;;;;;;;21.70;63.99;99291.55;1778094;80;21000;-71
2021/08/20 07:39:04;;;;;;;6.97;2.77;;;;;;;21.78;63.33;99287.36;1779380;80;21447;-73
2021/08/20 07:41:30;;;;;;;3.72;2.75;;;;;;;21.89;64.41;99281.19;1773061;80;21531;-72
2021/08/20 07:43:57;;;;;;;3.80;2.92;;;;;;;22.02;63.65;99283.20;1777159;80;21473;-74
2021/08/20 07:46:25;;;;;;;4.80;2.40;;;;;;;22.13;62.03;99278.21;1779416;80;20913;-74
2021/08/20 07:48:52;;;;;;;5.90;2.40;;;;;;;22.22;62.31;99278.01;1778135;80;21089;-72
2021/08/20 07:51:19;;;;;;;3.67;2.30;;;;;;;22.41;61.51;99271.20;1758673;81;21555;-71
2021/08/20 07:53:48;;;;;;;5.10;2.77;;;;;;;22.71;60.19;99271.52;1768839;81;20974;-71
2021/08/20 07:56:15;;;;;;;4.85;2.70;;;;;;;23.09;59.03;99272.42;1763588;81;21049;-73
2021/08/20 07:58:42;;;;;;;9.15;3.02;;;;;;;23.33;55.94;99267.28;1764108;79;20944;-73
2021/08/20 08:01:10;;;;;;;5.80;2.55;;;;;;;23.57;56.46;99276.19;1768889;81;21535;-71
2021/08/20 08:03:38;;;;;;;5.05;2.45;;;;;;;23.84;57.07;99276.37;1764297;81;21036;-71
2021/08/20 08:06:05;;;;;;;4.75;2.10;;;;;;;24.14;55.79;99278.55;1768919;80;21589;-71
2021/08/20 08:08:31;;;;;;;4.37;2.20;;;;;;;24.49;52.58;99279.45;1756956;81;21154;-70
2021/08/20 08:10:59;;;;;;;5.12;2.45;;;;;;;24.66;49.87;99271.46;1760174;81;20938;-72
2021/08/20 08:13:25;;;;;;;4.30;2.17;;;;;;;24.73;50.53;99274.19;1739203;82;20978;-69
2021/08/20 08:15:52;;;;;;;4.25;1.82;;;;;;;24.82;50.23;99267.47;1738930;82;20899;-70
2021/08/20 08:18:20;;;;;;;5.10;2.10;;;;;;;24.91;48.73;99264.14;1764751;81;21422;-69
2021/08/20 08:20:51;;;;;;;3.02;2.08;;;;;;;24.91;47.92;99266.34;1769137;81;21063;-71
2021/08/20 08:23:20;;;;;;;2.70;2.15;;;;;;;24.96;49.49;99260.89;1769414;81;20984;-70
2021/08/20 08:25:47;;;;;;;4.97;2.37;;;;;;;25.07;48.88;99262.97;1769428;81;21445;-72
2021/08/20 08:28:14;;;;;;;4.55;2.30;;;;;;;25.24;47.98;99262.56;1769502;81;21460;-69
2021/08/20 08:30:41;;;;;;;5.12;2.02;;;;;;;25.39;48.06;99260.36;1769691;81;20944;-70
2021/08/20 08:33:09;;;;;;;3.45;2.45;;;;;;;25.50;45.31;99258.95;1769507;81;21203;-71
2021/08/20 08:35:36;;;;;;;5.83;2.42;;;;;;;25.49;46.04;99265.80;1769465;81;20942;-70
2021/08/20 08:38:06;;;;;;;4.22;2.25;;;;;;;25.57;45.81;99268.70;1750717;81;21022;-72
2021/08/20 08:40:33;;;;;;;5.90;2.22;;;;;;;25.57;46.13;99258.86;1744737;81;21585;-70
2021/08/20 08:43:02;;;;;;;3.72;2.05;;;;;;;25.59;46.49;99258.44;1765755;81;20930;-71
2021/08/20 08:55:34;;;;;;;6.33;2.30;;;;;;;26.10;46.19;99260.05;1770241;78;26368;-69
2021/08/20 08:58:02;;;;;;;4.40;2.15;;;;;;;26.13;45.71;99267.63;1765392;80;20979;-70
2021/08/20 09:00:34;;;;;;;5.67;2.33;;;;;;;26.20;45.45;99266.72;1719809;80;21172;-70
2021/08/20 09:03:03;;;;;;;6.78;2.37;;;;;;;26.29;44.54;99257.11;1751447;80;21491;-71
2021/08/20 09:05:46;;;;;;;3.17;2.27;;;;;;;26.41;45.16;99259.34;1747793;80;21014;-71
2021/08/20 09:08:14;;;;;;;5.95;2.35;;;;;;;26.61;43.58;99260.15;1741798;82;20955;-70
2021/08/20 09:10:59;;;;;;;2.05;1.60;;;;;;;26.65;44.10;99258.06;1758760;80;20935;-69
2021/08/20 09:13:29;;;;;;;348.23;47.85;;;;;;;26.80;44.91;99251.55;1765093;80;20872;-69
2021/08/20 09:16:13;;;;;;;33.25;5.90;;;;;;;27.09;44.24;99248.18;1767312;80;21462;-69
2021/08/20 09:18:41;;;;;;;12.78;2.62;;;;;;;27.18;43.37;99254.00;1781101;80;21497;-70
2021/08/20 09:21:08;;;;;;;6.65;2.47;;;;;;;27.36;44.46;99250.18;1768570;80;20908;-70
2021/08/20 09:23:34;;;;;;;101.90;14.58;;;;;;;27.68;42.72;99252.92;1729006;80;20853;-75
2021/08/20 09:26:01;;;;;;;5.83;2.20;;;;;;;27.87;43.07;99247.80;1755010;80;21742;-69
2021/08/20 09:28:30;;;;;;;8.35;1.90;;;;;;;27.91;41.97;99254.16;1768038;80;20848;-68
2021/08/20 09:31:04;;;;;;;4.67;2.22;;;;;;;27.95;40.85;99257.69;1765179;80;20932;-69
2021/08/20 09:33:48;;;;;;;5.62;2.47;;;;;;;28.04;41.05;99258.48;1752033;80;21506;-77
2021/08/20 09:36:20;;;;;;;9.38;2.15;;;;;;;28.19;40.80;99261.92;1753115;80;20926;-72
2021/08/20 09:38:55;;;;;;;;;;;;;;;28.42;39.84;99255.90;1744714;80;20876;-69
2021/08/20 09:41:32;;;;;;;3.20;2.00;;;;;;;28.42;40.80;99253.87;1759870;80;20202;-69
2021/08/20 09:44:06;;;;;;;5.87;1.82;;;;;;;28.41;40.80;99257.93;1732979;80;21007;-69
2021/08/20 09:46:45;;;;;;;6.30;2.00;;;;;;;28.53;40.18;99247.94;1726513;82;21007;-73
2021/08/20 09:49:14;;;;;;;;;;;;;;;28.70;39.89;99252.93;1729836;82;20976;-70
2021/08/20 09:51:46;;;;;;;2.33;1.90;;;;;;;28.73;40.38;99250.01;1726692;81;21141;-70
2021/08/20 09:54:18;;;;;;;6.95;2.62;;;;;;;28.58;40.07;99257.28;1730164;81;21458;-68
2021/08/20 09:56:47;;;;;;;4.20;2.12;;;;;;;28.24;39.57;99252.95;1759795;80;21450;-69
2021/08/20 09:59:14;;;;;;;9.53;3.00;;;;;;;27.88;40.90;99245.95;1749914;81;20992;-70
2021/08/20 10:01:43;;;;;;;7.45;2.22;;;;;;;27.66;40.60;99249.13;1749045;80;21050;-69
2021/08/20 10:04:12;;;;;;;7.15;2.98;;;;;;;27.40;39.94;99248.69;1749950;82;21782;-69
2021/08/20 10:06:45;;;;;;;3.77;2.20;;;;;;;27.14;41.40;99244.86;1749236;82;20928;-69
2021/08/20 10:09:16;;;;;;;3.52;2.20;;;;;;;26.96;41.44;99246.63;1696699;83;21487;-76
2021/08/20 10:11:54;;;;;;;2.95;2.00;;;;;;;26.56;41.50;99242.38;1717216;82;20928;-69
2021/08/20 10:14:24;;;;;;;7.40;2.58;;;;;;;26.14;42.46;99242.50;1726024;81;22575;-77
2021/08/20 10:16:50;;;;;;;12.35;2.58;;;;;;;25.76;43.05;99248.97;1750221;80;21788;-71
2021/08/20 10:19:17;;;;;;;5.37;2.33;;;;;;;25.65;43.64;99238.50;1745052;81;20965;-69
2021/08/20 10:21:45;;;;;;;2.85;2.40;;;;;;;25.75;43.39;99243.77;1712922;81;21047;-68
2021/08/20 10:24:13;;;;;;;2.37;2.08;;;;;;;26.14;45.29;99243.91;1742724;81;21542;-69
2021/08/20 10:26:54;;;;;;;5.05;2.58;;;;;;;26.55;43.22;99239.37;1727299;82;21548;-72
2021/08/20 10:29:24;;;;;;;9.70;2.52;;;;;;;27.00;43.73;99233.27;1756515;80;21144;-68
2021/08/20 10:31:51;;;;;;;3.87;2.00;;;;;;;27.31;42.14;99233.78;1762636;80;21014;-70
2021/08/20 10:34:34;;;;;;;4.05;1.90;;;;;;;27.64;42.04;99238.11;1755477;80;21470;-73
2021/08/20 10:37:17;;;;;;;4.05;2.10;;;;;;;27.96;40.50;99238.11;1756005;81;21491;-71
2021/08/20 10:39:47;;;;;;;5.85;2.52;;;;;;;28.37;39.38;99235.27;1762367;81;20924;-71
2021/08/20 10:42:23;;;;;;;2.05;1.60;;;;;;;28.54;39.70;99231.97;1749732;80;20988;-70
2021/08/20 10:45:07;;;;;;;4.45;1.98;;;;;;;28.44;37.89;99232.25;1717029;82;20936;-74
2021/08/20 10:47:34;;;;;;;3.17;1.42;;;;;;;28.16;38.41;99228.14;1751305;80;21432;-72
2021/08/20 10:50:14;;;;;;;3.42;1.92;;;;;;;27.79;37.85;99235.91;1744776;80;20985;-73
2021/08/20 10:52:43;;;;;;;4.40;1.95;;;;;;;27.46;39.53;99231.44;1755449;80;21004;-74
2021/08/20 10:55:14;;;;;;;5.20;1.70;;;;;;;27.31;40.14;99223.92;1760163;80;21133;-72
2021/08/20 10:57:53;;;;;;;;;;;;;;;27.52;39.95;99221.23;1759715;80;20896;-72
2021/08/20 11:00:24;;;;;;;4.22;1.82;;;;;;;27.41;39.37;99227.12;1751424;80;20424;-73
2021/08/20 11:03:01;;;;;;;5.80;1.77;;;;;;;27.11;39.51;99228.20;1756896;81;21047;-74
2021/08/20 11:05:40;;;;;;;1.98;1.62;;;;;;;27.08;39.97;99222.65;1771080;80;20845;-74
2021/08/20 11:08:31;;;;;;;1.90;1.42;;;;;;;27.21;40.94;99224.95;1749532;80;21953;-71
2021/08/20 11:11:00;;;;;;;2.00;1.65;;;;;;;27.51;41.26;99219.03;1684887;84;21517;-72
2021/08/20 11:13:29;;;;;;;4.00;1.57;;;;;;;27.92;40.22;99217.04;1729314;81;20962;-72
2021/08/20 11:15:55;;;;;;;2.30;1.92;;;;;;;28.35;39.62;99213.12;1760051;80;21612;-72
2021/08/20 11:18:45;;;;;;;2.60;1.87;;;;;;;28.65;39.12;99214.73;1763269;80;21019;-76
2021/08/20 11:21:44;;;;;;;2.20;1.90;;;;;;;28.69;37.46;99210.39;1780063;80;21122;-73
2021/08/20 11:24:18;;;;;;;4.58;1.80;;;;;;;28.75;36.62;99217.08;1752656;80;21422;-75
2021/08/20 11:26:44;;;;;;;7.67;1.85;;;;;;;28.77;34.88;99201.27;1783029;79;21552;-75
2021/08/20 11:29:13;;;;;;;3.95;1.42;;;;;;;28.87;37.98;99205.85;1769089;79;21028;-71
2021/08/20 11:31:43;;;;;;;3.77;1.75;;;;;;;28.95;36.99;99201.37;1765402;80;20939;-70
2021/08/20 11:34:10;;;;;;;1.72;1.60;;;;;;;29.09;36.34;99205.20;1768892;80;21369;-75
2021/08/20 11:36:43;;;;;;;2.83;2.22;;;;;;;29.13;35.02;99199.61;1749302;80;20922;-70
2021/08/20 11:39:12;;;;;;;2.30;1.67;;;;;;;28.84;35.93;99215.22;1723772;82;20860;-72
2021/08/20 11:41:44;;;;;;;2.08;1.60;;;;;;;28.49;36.80;99214.77;1718141;81;20986;-73
2021/08/20 11:44:13;;;;;;;3.42;1.95;;;;;;;28.10;37.77;99215.19;1742837;80;20987;-73
2021/08/20 11:46:45;;;;;;;3.70;2.02;;;;;;;28.14;37.70;99204.59;1738929;80;21880;-76
2021/08/20 11:49:16;;;;;;;2.75;1.50;;;;;;;28.33;37.56;99206.34;1737103;80;21507;-74
2021/08/20 11:51:43;;;;;;;3.22;1.60;;;;;;;28.62;36.71;99213.42;1736168;80;21116;-74